sensor_id;sensor_type;location;lat;lon;timestamp;P1;durP1;ratioP1;P2;durP2;ratioP2
34317;SDS011;20582;52.196;20.952;2023-08-31T00:02:18;14.82;;;11.23;;
34317;SDS011;20582;52.196;20.952;2023-08-31T00:04:44;15.13;;;11.15;;
34317;SDS011;20582;52.196;20.952;2023-08-31T00:07:10;15.57;;;10.90;;
34317;SDS011;20582;52.196;20.952;2023-08-31T00:09:36;15.48;;;11.20;;
34317;SDS011;20582;52.196;20.952;2023-08-31T00:12:02;16.20;;;10.25;;
34317;SDS011;20582;52.196;20.952;2023-08-31T00:14:28;13.93;;;10.10;;
34317;SDS011;20582;52.196;20.952;2023-08-31T00:16:54;16.13;;;10.23;;
34317;SDS011;20582;52.196;20.952;2023-08-31T00:19:22;16.52;;;10.45;;
34317;SDS011;20582;52.196;20.952;2023-08-31T00:21:48;14.20;;;9.63;;
34317;SDS011;20582;52.196;20.952;2023-08-31T00:24:14;14.15;;;9.50;;
34317;SDS011;20582;52.196;20.952;2023-08-31T00:26:40;16.30;;;10.82;;
34317;SDS011;20582;52.196;20.952;2023-08-31T00:29:08;17.10;;;10.35;;
34317;SDS011;20582;52.196;20.952;2023-08-31T00:31:35;14.35;;;8.85;;
34317;SDS011;20582;52.196;20.952;2023-08-31T00:34:01;15.32;;;10.07;;
34317;SDS011;20582;52.196;20.952;2023-08-31T00:36:29;15.20;;;9.65;;
34317;SDS011;20582;52.196;20.952;2023-08-31T00:38:55;13.57;;;9.50;;
34317;SDS011;20582;52.196;20.952;2023-08-31T00:41:22;14.18;;;9.95;;
34317;SDS011;20582;52.196;20.952;2023-08-31T00:43:48;12.27;;;8.98;;
34317;SDS011;20582;52.196;20.952;2023-08-31T00:46:14;13.57;;;9.18;;
34317;SDS011;20582;52.196;20.952;2023-08-31T00:48:41;15.30;;;9.25;;
34317;SDS011;20582;52.196;20.952;2023-08-31T00:51:07;14.20;;;8.95;;
34317;SDS011;20582;52.196;20.952;2023-08-31T00:53:35;13.20;;;9.27;;
34317;SDS011;20582;52.196;20.952;2023-08-31T00:56:01;13.00;;;9.35;;
34317;SDS011;20582;52.196;20.952;2023-08-31T00:58:27;14.40;;;8.57;;
34317;SDS011;20582;52.196;20.952;2023-08-31T01:01:04;12.98;;;8.18;;
34317;SDS011;20582;52.196;20.952;2023-08-31T01:11:09;14.77;;;8.43;;
34317;SDS011;20582;52.196;20.952;2023-08-31T01:13:38;12.88;;;7.85;;
34317;SDS011;20582;52.196;20.952;2023-08-31T01:16:05;11.85;;;8.15;;
34317;SDS011;20582;52.196;20.952;2023-08-31T01:18:33;12.57;;;8.20;;
34317;SDS011;20582;52.196;20.952;2023-08-31T01:21:06;14.38;;;7.95;;
34317;SDS011;20582;52.196;20.952;2023-08-31T01:23:53;11.25;;;8.00;;
34317;SDS011;20582;52.196;20.952;2023-08-31T01:26:20;12.93;;;8.60;;
34317;SDS011;20582;52.196;20.952;2023-08-31T01:28:47;11.70;;;7.80;;
34317;SDS011;20582;52.196;20.952;2023-08-31T01:31:13;12.02;;;8.43;;
34317;SDS011;20582;52.196;20.952;2023-08-31T01:33:40;11.95;;;8.05;;
34317;SDS011;20582;52.196;20.952;2023-08-31T01:36:08;14.50;;;8.40;;
34317;SDS011;20582;52.196;20.952;2023-08-31T01:38:36;12.82;;;8.65;;
34317;SDS011;20582;52.196;20.952;2023-08-31T01:41:07;14.18;;;9.00;;
34317;SDS011;20582;52.196;20.952;2023-08-31T01:43:33;11.80;;;8.35;;
34317;SDS011;20582;52.196;20.952;2023-08-31T01:46:00;11.98;;;8.65;;
34317;SDS011;20582;52.196;20.952;2023-08-31T01:48:27;14.20;;;8.57;;
34317;SDS011;20582;52.196;20.952;2023-08-31T01:50:53;11.52;;;8.48;;
34317;SDS011;20582;52.196;20.952;2023-08-31T01:53:19;13.20;;;8.98;;
34317;SDS011;20582;52.196;20.952;2023-08-31T01:55:45;13.43;;;8.48;;
34317;SDS011;20582;52.196;20.952;2023-08-31T01:58:11;13.35;;;8.43;;
34317;SDS011;20582;52.196;20.952;2023-08-31T02:00:37;14.30;;;8.40;;
34317;SDS011;20582;52.196;20.952;2023-08-31T02:03:03;14.23;;;8.55;;
34317;SDS011;20582;52.196;20.952;2023-08-31T02:05:31;13.48;;;8.68;;
34317;SDS011;20582;52.196;20.952;2023-08-31T02:07:57;12.77;;;9.05;;
34317;SDS011;20582;52.196;20.952;2023-08-31T02:10:23;11.93;;;9.02;;
34317;SDS011;20582;52.196;20.952;2023-08-31T02:12:48;15.10;;;9.38;;
34317;SDS011;20582;52.196;20.952;2023-08-31T02:15:14;15.52;;;8.85;;
34317;SDS011;20582;52.196;20.952;2023-08-31T02:17:40;12.18;;;8.73;;
34317;SDS011;20582;52.196;20.952;2023-08-31T02:20:08;11.32;;;8.63;;
34317;SDS011;20582;52.196;20.952;2023-08-31T02:22:34;12.85;;;8.98;;
34317;SDS011;20582;52.196;20.952;2023-08-31T02:25:01;12.50;;;8.95;;
34317;SDS011;20582;52.196;20.952;2023-08-31T02:27:27;14.82;;;9.95;;
34317;SDS011;20582;52.196;20.952;2023-08-31T02:29:53;13.00;;;9.25;;
34317;SDS011;20582;52.196;20.952;2023-08-31T02:32:19;13.25;;;9.10;;
34317;SDS011;20582;52.196;20.952;2023-08-31T02:34:45;11.40;;;9.25;;
34317;SDS011;20582;52.196;20.952;2023-08-31T02:37:11;14.63;;;8.98;;
34317;SDS011;20582;52.196;20.952;2023-08-31T02:39:37;12.10;;;8.27;;
34317;SDS011;20582;52.196;20.952;2023-08-31T02:42:05;12.68;;;8.75;;
34317;SDS011;20582;52.196;20.952;2023-08-31T02:44:31;13.52;;;9.95;;
34317;SDS011;20582;52.196;20.952;2023-08-31T02:46:57;15.18;;;9.80;;
34317;SDS011;20582;52.196;20.952;2023-08-31T02:49:23;12.32;;;8.75;;
34317;SDS011;20582;52.196;20.952;2023-08-31T02:51:49;14.90;;;8.98;;
34317;SDS011;20582;52.196;20.952;2023-08-31T02:54:15;12.90;;;9.07;;
34317;SDS011;20582;52.196;20.952;2023-08-31T02:56:41;13.35;;;9.35;;
34317;SDS011;20582;52.196;20.952;2023-08-31T02:59:07;13.60;;;9.65;;
34317;SDS011;20582;52.196;20.952;2023-08-31T03:01:33;13.57;;;9.55;;
34317;SDS011;20582;52.196;20.952;2023-08-31T03:04:00;14.18;;;10.00;;
34317;SDS011;20582;52.196;20.952;2023-08-31T03:06:26;15.52;;;10.65;;
34317;SDS011;20582;52.196;20.952;2023-08-31T03:08:52;19.00;;;10.48;;
34317;SDS011;20582;52.196;20.952;2023-08-31T03:11:17;18.23;;;11.00;;
34317;SDS011;20582;52.196;20.952;2023-08-31T03:13:43;17.25;;;11.38;;
34317;SDS011;20582;52.196;20.952;2023-08-31T03:16:09;18.08;;;10.77;;
34317;SDS011;20582;52.196;20.952;2023-08-31T03:18:35;15.38;;;11.88;;
34317;SDS011;20582;52.196;20.952;2023-08-31T03:21:01;17.70;;;11.68;;
34317;SDS011;20582;52.196;20.952;2023-08-31T03:23:28;15.73;;;12.23;;
34317;SDS011;20582;52.196;20.952;2023-08-31T03:25:55;19.63;;;13.32;;
34317;SDS011;20582;52.196;20.952;2023-08-31T03:28:21;17.05;;;12.68;;
34317;SDS011;20582;52.196;20.952;2023-08-31T03:30:53;19.38;;;12.82;;
34317;SDS011;20582;52.196;20.952;2023-08-31T03:33:19;16.65;;;11.70;;
34317;SDS011;20582;52.196;20.952;2023-08-31T03:35:45;15.60;;;11.68;;
34317;SDS011;20582;52.196;20.952;2023-08-31T03:38:11;15.63;;;11.95;;
34317;SDS011;20582;52.196;20.952;2023-08-31T03:40:37;13.77;;;10.32;;
34317;SDS011;20582;52.196;20.952;2023-08-31T03:43:03;14.82;;;11.32;;
34317;SDS011;20582;52.196;20.952;2023-08-31T03:45:29;15.07;;;10.73;;
34317;SDS011;20582;52.196;20.952;2023-08-31T03:47:55;15.93;;;10.60;;
34317;SDS011;20582;52.196;20.952;2023-08-31T03:50:21;13.55;;;10.00;;
34317;SDS011;20582;52.196;20.952;2023-08-31T03:52:47;15.50;;;9.68;;
34317;SDS011;20582;52.196;20.952;2023-08-31T03:55:13;14.50;;;10.07;;
34317;SDS011;20582;52.196;20.952;2023-08-31T03:57:39;11.85;;;9.38;;
34317;SDS011;20582;52.196;20.952;2023-08-31T04:00:06;19.10;;;11.82;;
34317;SDS011;20582;52.196;20.952;2023-08-31T04:02:37;15.63;;;10.57;;
34317;SDS011;20582;52.196;20.952;2023-08-31T04:05:03;17.45;;;10.88;;
34317;SDS011;20582;52.196;20.952;2023-08-31T04:07:30;12.50;;;8.93;;
34317;SDS011;20582;52.196;20.952;2023-08-31T04:09:57;17.85;;;15.13;;
34317;SDS011;20582;52.196;20.952;2023-08-31T04:12:23;18.45;;;14.50;;
34317;SDS011;20582;52.196;20.952;2023-08-31T04:14:49;17.45;;;12.68;;
34317;SDS011;20582;52.196;20.952;2023-08-31T04:17:15;14.63;;;10.88;;
34317;SDS011;20582;52.196;20.952;2023-08-31T04:19:41;17.23;;;13.50;;
34317;SDS011;20582;52.196;20.952;2023-08-31T04:22:07;24.30;;;15.02;;
34317;SDS011;20582;52.196;20.952;2023-08-31T04:24:33;12.75;;;8.63;;
34317;SDS011;20582;52.196;20.952;2023-08-31T04:26:59;15.05;;;9.50;;
34317;SDS011;20582;52.196;20.952;2023-08-31T04:29:25;11.93;;;7.88;;
34317;SDS011;20582;52.196;20.952;2023-08-31T04:31:51;12.57;;;7.90;;
34317;SDS011;20582;52.196;20.952;2023-08-31T04:34:17;12.05;;;7.85;;
34317;SDS011;20582;52.196;20.952;2023-08-31T04:36:43;13.90;;;7.95;;
34317;SDS011;20582;52.196;20.952;2023-08-31T04:39:09;10.52;;;7.43;;
34317;SDS011;20582;52.196;20.952;2023-08-31T04:41:35;10.23;;;7.22;;
34317;SDS011;20582;52.196;20.952;2023-08-31T04:44:01;13.30;;;7.93;;
34317;SDS011;20582;52.196;20.952;2023-08-31T04:46:27;11.88;;;7.88;;
34317;SDS011;20582;52.196;20.952;2023-08-31T04:48:53;13.23;;;7.60;;
34317;SDS011;20582;52.196;20.952;2023-08-31T04:51:29;10.77;;;7.07;;
34317;SDS011;20582;52.196;20.952;2023-08-31T04:53:55;11.93;;;7.80;;
34317;SDS011;20582;52.196;20.952;2023-08-31T04:56:21;11.38;;;8.00;;
34317;SDS011;20582;52.196;20.952;2023-08-31T04:58:47;13.48;;;7.90;;
34317;SDS011;20582;52.196;20.952;2023-08-31T05:01:13;10.20;;;7.40;;
34317;SDS011;20582;52.196;20.952;2023-08-31T05:03:39;11.80;;;8.00;;
34317;SDS011;20582;52.196;20.952;2023-08-31T05:06:05;13.48;;;7.60;;
34317;SDS011;20582;52.196;20.952;2023-08-31T05:08:31;11.15;;;8.30;;
34317;SDS011;20582;52.196;20.952;2023-08-31T05:10:57;13.85;;;8.07;;
34317;SDS011;20582;52.196;20.952;2023-08-31T05:13:23;12.93;;;7.82;;
34317;SDS011;20582;52.196;20.952;2023-08-31T05:15:49;12.00;;;7.90;;
34317;SDS011;20582;52.196;20.952;2023-08-31T05:18:15;11.68;;;7.32;;
34317;SDS011;20582;52.196;20.952;2023-08-31T05:20:44;15.18;;;7.45;;
34317;SDS011;20582;52.196;20.952;2023-08-31T05:23:10;11.90;;;7.30;;
34317;SDS011;20582;52.196;20.952;2023-08-31T05:25:41;10.93;;;6.82;;
34317;SDS011;20582;52.196;20.952;2023-08-31T05:28:07;10.75;;;6.95;;
34317;SDS011;20582;52.196;20.952;2023-08-31T05:30:33;12.43;;;6.75;;
34317;SDS011;20582;52.196;20.952;2023-08-31T05:32:59;10.73;;;6.78;;
34317;SDS011;20582;52.196;20.952;2023-08-31T05:35:25;10.57;;;6.45;;
34317;SDS011;20582;52.196;20.952;2023-08-31T05:37:51;11.07;;;6.25;;
34317;SDS011;20582;52.196;20.952;2023-08-31T05:40:17;12.38;;;6.70;;
34317;SDS011;20582;52.196;20.952;2023-08-31T05:42:44;13.02;;;6.75;;
34317;SDS011;20582;52.196;20.952;2023-08-31T05:45:10;9.13;;;5.90;;
34317;SDS011;20582;52.196;20.952;2023-08-31T05:47:36;9.38;;;6.32;;
34317;SDS011;20582;52.196;20.952;2023-08-31T05:50:03;8.63;;;6.15;;
34317;SDS011;20582;52.196;20.952;2023-08-31T05:52:29;6.90;;;4.57;;
34317;SDS011;20582;52.196;20.952;2023-08-31T05:54:55;6.82;;;3.28;;
34317;SDS011;20582;52.196;20.952;2023-08-31T05:57:21;5.65;;;2.53;;
34317;SDS011;20582;52.196;20.952;2023-08-31T05:59:48;4.13;;;2.33;;
34317;SDS011;20582;52.196;20.952;2023-08-31T06:02:13;4.20;;;2.08;;
34317;SDS011;20582;52.196;20.952;2023-08-31T06:04:40;4.63;;;2.40;;
34317;SDS011;20582;52.196;20.952;2023-08-31T06:07:06;6.18;;;2.47;;
34317;SDS011;20582;52.196;20.952;2023-08-31T06:09:32;7.78;;;2.30;;
34317;SDS011;20582;52.196;20.952;2023-08-31T06:11:58;7.82;;;2.45;;
34317;SDS011;20582;52.196;20.952;2023-08-31T06:14:24;4.50;;;2.58;;
34317;SDS011;20582;52.196;20.952;2023-08-31T06:16:50;4.00;;;2.20;;
34317;SDS011;20582;52.196;20.952;2023-08-31T06:19:17;6.57;;;2.38;;
34317;SDS011;20582;52.196;20.952;2023-08-31T06:21:43;5.22;;;2.45;;
34317;SDS011;20582;52.196;20.952;2023-08-31T06:24:09;5.75;;;2.42;;
34317;SDS011;20582;52.196;20.952;2023-08-31T06:26:38;5.75;;;2.20;;
34317;SDS011;20582;52.196;20.952;2023-08-31T06:29:04;4.47;;;2.20;;
34317;SDS011;20582;52.196;20.952;2023-08-31T06:31:30;4.20;;;2.00;;
34317;SDS011;20582;52.196;20.952;2023-08-31T06:33:56;6.35;;;2.50;;
34317;SDS011;20582;52.196;20.952;2023-08-31T06:36:23;7.10;;;2.47;;
34317;SDS011;20582;52.196;20.952;2023-08-31T06:38:49;7.13;;;2.80;;
34317;SDS011;20582;52.196;20.952;2023-08-31T06:41:15;5.65;;;3.20;;
34317;SDS011;20582;52.196;20.952;2023-08-31T06:43:41;6.88;;;3.30;;
34317;SDS011;20582;52.196;20.952;2023-08-31T06:46:07;5.20;;;3.00;;
34317;SDS011;20582;52.196;20.952;2023-08-31T06:48:33;6.60;;;3.03;;
34317;SDS011;20582;52.196;20.952;2023-08-31T06:50:59;7.78;;;3.15;;
34317;SDS011;20582;52.196;20.952;2023-08-31T06:53:25;6.75;;;2.65;;
34317;SDS011;20582;52.196;20.952;2023-08-31T06:55:51;6.97;;;3.53;;
34317;SDS011;20582;52.196;20.952;2023-08-31T06:58:17;7.82;;;3.80;;
34317;SDS011;20582;52.196;20.952;2023-08-31T07:00:43;7.25;;;3.70;;
34317;SDS011;20582;52.196;20.952;2023-08-31T07:03:09;6.68;;;4.05;;
34317;SDS011;20582;52.196;20.952;2023-08-31T07:05:36;8.32;;;3.13;;
34317;SDS011;20582;52.196;20.952;2023-08-31T07:08:06;6.90;;;3.42;;
34317;SDS011;20582;52.196;20.952;2023-08-31T07:10:33;8.45;;;3.65;;
34317;SDS011;20582;52.196;20.952;2023-08-31T07:13:01;6.57;;;3.10;;
34317;SDS011;20582;52.196;20.952;2023-08-31T07:15:27;8.07;;;3.60;;
34317;SDS011;20582;52.196;20.952;2023-08-31T07:17:53;7.18;;;3.47;;
34317;SDS011;20582;52.196;20.952;2023-08-31T07:20:19;5.93;;;3.38;;
34317;SDS011;20582;52.196;20.952;2023-08-31T07:22:45;5.68;;;3.55;;
34317;SDS011;20582;52.196;20.952;2023-08-31T07:25:11;5.55;;;3.30;;
34317;SDS011;20582;52.196;20.952;2023-08-31T07:27:37;7.35;;;3.20;;
34317;SDS011;20582;52.196;20.952;2023-08-31T07:30:04;7.22;;;3.25;;
34317;SDS011;20582;52.196;20.952;2023-08-31T07:32:30;6.72;;;2.83;;
34317;SDS011;20582;52.196;20.952;2023-08-31T07:34:56;5.10;;;2.53;;
34317;SDS011;20582;52.196;20.952;2023-08-31T07:37:22;5.55;;;2.70;;
34317;SDS011;20582;52.196;20.952;2023-08-31T07:39:48;6.47;;;2.92;;
34317;SDS011;20582;52.196;20.952;2023-08-31T07:42:14;7.03;;;3.08;;
34317;SDS011;20582;52.196;20.952;2023-08-31T07:44:40;7.07;;;3.13;;
34317;SDS011;20582;52.196;20.952;2023-08-31T07:47:07;5.22;;;2.78;;
34317;SDS011;20582;52.196;20.952;2023-08-31T07:49:33;8.00;;;2.70;;
34317;SDS011;20582;52.196;20.952;2023-08-31T07:51:59;6.05;;;2.50;;
34317;SDS011;20582;52.196;20.952;2023-08-31T07:54:25;6.10;;;2.10;;
34317;SDS011;20582;52.196;20.952;2023-08-31T07:56:51;5.78;;;2.80;;
34317;SDS011;20582;52.196;20.952;2023-08-31T07:59:17;7.82;;;2.80;;
34317;SDS011;20582;52.196;20.952;2023-08-31T08:01:43;5.45;;;2.65;;
34317;SDS011;20582;52.196;20.952;2023-08-31T08:04:10;5.63;;;3.00;;
34317;SDS011;20582;52.196;20.952;2023-08-31T08:06:37;5.90;;;2.60;;
34317;SDS011;20582;52.196;20.952;2023-08-31T08:09:03;4.38;;;2.00;;
34317;SDS011;20582;52.196;20.952;2023-08-31T08:11:29;5.05;;;2.30;;
34317;SDS011;20582;52.196;20.952;2023-08-31T08:13:55;5.68;;;2.40;;
34317;SDS011;20582;52.196;20.952;2023-08-31T08:16:21;7.03;;;2.30;;
34317;SDS011;20582;52.196;20.952;2023-08-31T08:18:47;4.50;;;2.38;;
34317;SDS011;20582;52.196;20.952;2023-08-31T08:21:13;4.45;;;2.03;;
34317;SDS011;20582;52.196;20.952;2023-08-31T08:23:39;4.85;;;2.10;;
34317;SDS011;20582;52.196;20.952;2023-08-31T08:26:05;5.38;;;2.40;;
34317;SDS011;20582;52.196;20.952;2023-08-31T08:28:31;6.40;;;1.85;;
34317;SDS011;20582;52.196;20.952;2023-08-31T08:31:00;5.13;;;2.17;;
34317;SDS011;20582;52.196;20.952;2023-08-31T08:33:26;4.10;;;2.30;;
34317;SDS011;20582;52.196;20.952;2023-08-31T08:35:55;6.07;;;2.47;;
34317;SDS011;20582;52.196;20.952;2023-08-31T08:38:21;5.35;;;2.50;;
34317;SDS011;20582;52.196;20.952;2023-08-31T08:40:47;5.43;;;2.70;;
34317;SDS011;20582;52.196;20.952;2023-08-31T08:43:13;5.70;;;2.85;;
34317;SDS011;20582;52.196;20.952;2023-08-31T08:45:39;6.68;;;3.00;;
34317;SDS011;20582;52.196;20.952;2023-08-31T08:48:07;5.13;;;2.40;;
34317;SDS011;20582;52.196;20.952;2023-08-31T08:50:35;6.00;;;2.92;;
34317;SDS011;20582;52.196;20.952;2023-08-31T08:53:01;6.47;;;2.70;;
34317;SDS011;20582;52.196;20.952;2023-08-31T08:55:28;5.90;;;2.53;;
34317;SDS011;20582;52.196;20.952;2023-08-31T08:57:53;5.30;;;2.67;;
34317;SDS011;20582;52.196;20.952;2023-08-31T09:00:19;3.95;;;2.47;;
34317;SDS011;20582;52.196;20.952;2023-08-31T09:02:46;4.35;;;2.42;;
34317;SDS011;20582;52.196;20.952;2023-08-31T09:05:12;5.03;;;2.42;;
34317;SDS011;20582;52.196;20.952;2023-08-31T09:07:38;5.40;;;2.80;;
34317;SDS011;20582;52.196;20.952;2023-08-31T09:10:04;7.93;;;3.10;;
34317;SDS011;20582;52.196;20.952;2023-08-31T09:12:30;6.70;;;2.70;;
34317;SDS011;20582;52.196;20.952;2023-08-31T09:14:57;4.75;;;2.80;;
34317;SDS011;20582;52.196;20.952;2023-08-31T09:17:23;4.03;;;2.80;;
34317;SDS011;20582;52.196;20.952;2023-08-31T09:19:59;5.55;;;2.53;;
34317;SDS011;20582;52.196;20.952;2023-08-31T09:22:26;4.97;;;2.40;;
34317;SDS011;20582;52.196;20.952;2023-08-31T09:24:52;5.95;;;2.90;;
34317;SDS011;20582;52.196;20.952;2023-08-31T09:27:19;5.88;;;2.60;;
34317;SDS011;20582;52.196;20.952;2023-08-31T09:29:47;4.78;;;2.58;;
34317;SDS011;20582;52.196;20.952;2023-08-31T09:32:19;3.92;;;2.53;;
34317;SDS011;20582;52.196;20.952;2023-08-31T09:34:45;4.95;;;2.50;;
34317;SDS011;20582;52.196;20.952;2023-08-31T09:37:11;6.63;;;2.63;;
34317;SDS011;20582;52.196;20.952;2023-08-31T09:39:38;4.90;;;2.38;;
34317;SDS011;20582;52.196;20.952;2023-08-31T09:42:04;5.38;;;2.72;;
34317;SDS011;20582;52.196;20.952;2023-08-31T09:44:31;6.40;;;2.72;;
34317;SDS011;20582;52.196;20.952;2023-08-31T09:46:57;5.90;;;2.97;;
34317;SDS011;20582;52.196;20.952;2023-08-31T09:49:23;5.25;;;2.55;;
34317;SDS011;20582;52.196;20.952;2023-08-31T09:51:50;5.38;;;2.50;;
34317;SDS011;20582;52.196;20.952;2023-08-31T09:54:17;4.85;;;2.85;;
34317;SDS011;20582;52.196;20.952;2023-08-31T09:56:44;6.10;;;3.00;;
34317;SDS011;20582;52.196;20.952;2023-08-31T09:59:10;4.32;;;2.30;;
34317;SDS011;20582;52.196;20.952;2023-08-31T10:01:37;4.82;;;2.58;;
34317;SDS011;20582;52.196;20.952;2023-08-31T10:04:03;5.15;;;2.88;;
34317;SDS011;20582;52.196;20.952;2023-08-31T10:06:31;4.28;;;2.60;;
34317;SDS011;20582;52.196;20.952;2023-08-31T10:08:57;12.18;;;2.85;;
34317;SDS011;20582;52.196;20.952;2023-08-31T10:11:24;5.18;;;2.55;;
34317;SDS011;20582;52.196;20.952;2023-08-31T10:13:51;6.13;;;2.65;;
34317;SDS011;20582;52.196;20.952;2023-08-31T10:16:18;4.50;;;2.60;;
34317;SDS011;20582;52.196;20.952;2023-08-31T10:18:45;4.45;;;2.78;;
34317;SDS011;20582;52.196;20.952;2023-08-31T10:21:11;6.20;;;2.63;;
34317;SDS011;20582;52.196;20.952;2023-08-31T10:23:43;4.03;;;2.70;;
34317;SDS011;20582;52.196;20.952;2023-08-31T10:26:10;5.57;;;2.80;;
34317;SDS011;20582;52.196;20.952;2023-08-31T10:28:39;7.05;;;2.63;;
34317;SDS011;20582;52.196;20.952;2023-08-31T10:31:06;6.70;;;2.90;;
34317;SDS011;20582;52.196;20.952;2023-08-31T10:33:45;6.20;;;2.80;;
34317;SDS011;20582;52.196;20.952;2023-08-31T10:36:15;6.78;;;3.00;;
34317;SDS011;20582;52.196;20.952;2023-08-31T10:38:42;8.23;;;3.00;;
34317;SDS011;20582;52.196;20.952;2023-08-31T10:43:52;7.30;;;3.20;;
34317;SDS011;20582;52.196;20.952;2023-08-31T10:47:04;6.78;;;3.13;;
34317;SDS011;20582;52.196;20.952;2023-08-31T10:51:37;7.18;;;2.88;;
34317;SDS011;20582;52.196;20.952;2023-08-31T10:54:13;6.93;;;3.10;;
34317;SDS011;20582;52.196;20.952;2023-08-31T10:59:40;4.95;;;2.67;;
34317;SDS011;20582;52.196;20.952;2023-08-31T11:02:06;6.55;;;3.50;;
34317;SDS011;20582;52.196;20.952;2023-08-31T11:04:52;6.50;;;3.17;;
34317;SDS011;20582;52.196;20.952;2023-08-31T11:07:18;5.15;;;3.10;;
34317;SDS011;20582;52.196;20.952;2023-08-31T11:09:45;8.52;;;3.15;;
34317;SDS011;20582;52.196;20.952;2023-08-31T11:12:11;6.07;;;3.13;;
34317;SDS011;20582;52.196;20.952;2023-08-31T11:14:38;6.60;;;2.75;;
34317;SDS011;20582;52.196;20.952;2023-08-31T11:17:04;5.05;;;3.30;;
34317;SDS011;20582;52.196;20.952;2023-08-31T11:19:31;4.90;;;3.00;;
34317;SDS011;20582;52.196;20.952;2023-08-31T11:21:57;4.18;;;2.65;;
34317;SDS011;20582;52.196;20.952;2023-08-31T11:24:24;11.45;;;3.58;;
34317;SDS011;20582;52.196;20.952;2023-08-31T11:26:50;8.27;;;3.47;;
34317;SDS011;20582;52.196;20.952;2023-08-31T11:29:16;5.22;;;3.22;;
34317;SDS011;20582;52.196;20.952;2023-08-31T11:31:42;5.65;;;2.80;;
34317;SDS011;20582;52.196;20.952;2023-08-31T11:34:12;7.50;;;3.03;;
34317;SDS011;20582;52.196;20.952;2023-08-31T11:36:38;6.10;;;3.05;;
34317;SDS011;20582;52.196;20.952;2023-08-31T11:39:05;4.65;;;3.00;;
34317;SDS011;20582;52.196;20.952;2023-08-31T11:41:35;6.50;;;3.33;;
34317;SDS011;20582;52.196;20.952;2023-08-31T11:44:03;5.70;;;3.10;;
34317;SDS011;20582;52.196;20.952;2023-08-31T11:46:29;5.05;;;3.30;;
34317;SDS011;20582;52.196;20.952;2023-08-31T11:48:56;6.78;;;2.92;;
34317;SDS011;20582;52.196;20.952;2023-08-31T11:51:22;6.63;;;3.17;;
34317;SDS011;20582;52.196;20.952;2023-08-31T11:53:48;7.40;;;3.15;;
34317;SDS011;20582;52.196;20.952;2023-08-31T11:56:15;6.82;;;3.40;;
34317;SDS011;20582;52.196;20.952;2023-08-31T11:58:41;9.18;;;3.88;;
34317;SDS011;20582;52.196;20.952;2023-08-31T12:01:07;5.75;;;3.33;;
34317;SDS011;20582;52.196;20.952;2023-08-31T12:03:43;6.05;;;3.17;;
34317;SDS011;20582;52.196;20.952;2023-08-31T12:06:09;6.45;;;3.53;;
34317;SDS011;20582;52.196;20.952;2023-08-31T12:08:36;5.57;;;3.20;;
34317;SDS011;20582;52.196;20.952;2023-08-31T12:11:03;7.95;;;3.15;;
34317;SDS011;20582;52.196;20.952;2023-08-31T12:13:31;7.88;;;3.40;;
34317;SDS011;20582;52.196;20.952;2023-08-31T12:15:57;5.72;;;3.50;;
34317;SDS011;20582;52.196;20.952;2023-08-31T12:18:23;6.13;;;3.33;;
34317;SDS011;20582;52.196;20.952;2023-08-31T12:20:50;9.07;;;3.28;;
34317;SDS011;20582;52.196;20.952;2023-08-31T12:23:17;5.80;;;3.40;;
34317;SDS011;20582;52.196;20.952;2023-08-31T12:25:51;5.95;;;3.33;;
34317;SDS011;20582;52.196;20.952;2023-08-31T12:28:17;7.53;;;3.42;;
34317;SDS011;20582;52.196;20.952;2023-08-31T12:30:53;5.47;;;3.10;;
34317;SDS011;20582;52.196;20.952;2023-08-31T12:33:21;6.45;;;2.90;;
34317;SDS011;20582;52.196;20.952;2023-08-31T12:35:47;6.82;;;3.30;;
34317;SDS011;20582;52.196;20.952;2023-08-31T12:38:13;5.85;;;3.47;;
34317;SDS011;20582;52.196;20.952;2023-08-31T12:40:39;5.25;;;3.30;;
34317;SDS011;20582;52.196;20.952;2023-08-31T12:43:06;6.05;;;3.33;;
34317;SDS011;20582;52.196;20.952;2023-08-31T12:45:32;6.13;;;3.25;;
34317;SDS011;20582;52.196;20.952;2023-08-31T12:47:58;6.00;;;3.45;;
34317;SDS011;20582;52.196;20.952;2023-08-31T12:50:24;6.95;;;3.22;;
34317;SDS011;20582;52.196;20.952;2023-08-31T12:52:50;4.28;;;3.08;;
34317;SDS011;20582;52.196;20.952;2023-08-31T12:55:16;4.63;;;3.13;;
34317;SDS011;20582;52.196;20.952;2023-08-31T12:57:43;5.88;;;3.22;;
34317;SDS011;20582;52.196;20.952;2023-08-31T13:00:09;5.15;;;3.22;;
34317;SDS011;20582;52.196;20.952;2023-08-31T13:02:39;6.28;;;3.40;;
34317;SDS011;20582;52.196;20.952;2023-08-31T13:05:05;6.28;;;3.30;;
34317;SDS011;20582;52.196;20.952;2023-08-31T13:07:31;5.32;;;3.47;;
34317;SDS011;20582;52.196;20.952;2023-08-31T13:10:01;6.95;;;3.25;;
34317;SDS011;20582;52.196;20.952;2023-08-31T13:12:29;5.75;;;3.20;;
34317;SDS011;20582;52.196;20.952;2023-08-31T13:14:55;5.63;;;3.00;;
34317;SDS011;20582;52.196;20.952;2023-08-31T13:17:22;6.53;;;3.20;;
34317;SDS011;20582;52.196;20.952;2023-08-31T13:19:51;6.10;;;3.58;;
34317;SDS011;20582;52.196;20.952;2023-08-31T13:22:17;5.88;;;3.22;;
34317;SDS011;20582;52.196;20.952;2023-08-31T13:24:43;5.65;;;3.45;;
34317;SDS011;20582;52.196;20.952;2023-08-31T13:27:09;8.88;;;3.50;;
34317;SDS011;20582;52.196;20.952;2023-08-31T13:29:35;5.10;;;3.38;;
34317;SDS011;20582;52.196;20.952;2023-08-31T13:32:01;6.43;;;3.42;;
34317;SDS011;20582;52.196;20.952;2023-08-31T13:34:28;7.07;;;3.38;;
34317;SDS011;20582;52.196;20.952;2023-08-31T13:36:54;7.30;;;3.70;;
34317;SDS011;20582;52.196;20.952;2023-08-31T13:39:21;5.75;;;3.60;;
34317;SDS011;20582;52.196;20.952;2023-08-31T13:41:52;7.45;;;3.40;;
34317;SDS011;20582;52.196;20.952;2023-08-31T13:44:19;7.00;;;3.33;;
34317;SDS011;20582;52.196;20.952;2023-08-31T13:46:45;6.32;;;3.55;;
34317;SDS011;20582;52.196;20.952;2023-08-31T13:49:11;9.60;;;3.53;;
34317;SDS011;20582;52.196;20.952;2023-08-31T13:51:38;4.93;;;3.22;;
34317;SDS011;20582;52.196;20.952;2023-08-31T13:54:04;11.65;;;3.45;;
34317;SDS011;20582;52.196;20.952;2023-08-31T13:56:31;6.15;;;3.33;;
34317;SDS011;20582;52.196;20.952;2023-08-31T13:58:57;6.25;;;3.40;;
34317;SDS011;20582;52.196;20.952;2023-08-31T14:01:24;4.95;;;3.10;;
34317;SDS011;20582;52.196;20.952;2023-08-31T14:03:50;7.78;;;3.70;;
34317;SDS011;20582;52.196;20.952;2023-08-31T14:06:16;8.88;;;4.10;;
34317;SDS011;20582;52.196;20.952;2023-08-31T14:08:42;9.90;;;4.53;;
34317;SDS011;20582;52.196;20.952;2023-08-31T14:11:08;9.90;;;4.88;;
34317;SDS011;20582;52.196;20.952;2023-08-31T14:13:34;13.52;;;5.07;;
34317;SDS011;20582;52.196;20.952;2023-08-31T14:16:00;11.77;;;4.82;;
34317;SDS011;20582;52.196;20.952;2023-08-31T14:18:27;9.45;;;4.88;;
34317;SDS011;20582;52.196;20.952;2023-08-31T14:20:57;12.32;;;5.15;;
34317;SDS011;20582;52.196;20.952;2023-08-31T14:23:24;10.15;;;5.05;;
34317;SDS011;20582;52.196;20.952;2023-08-31T14:25:50;8.85;;;4.88;;
34317;SDS011;20582;52.196;20.952;2023-08-31T14:28:16;9.70;;;4.68;;
34317;SDS011;20582;52.196;20.952;2023-08-31T14:30:41;8.80;;;4.72;;
34317;SDS011;20582;52.196;20.952;2023-08-31T14:33:07;9.32;;;4.95;;
34317;SDS011;20582;52.196;20.952;2023-08-31T14:35:37;8.63;;;5.30;;
34317;SDS011;20582;52.196;20.952;2023-08-31T14:38:03;12.45;;;5.30;;
34317;SDS011;20582;52.196;20.952;2023-08-31T14:40:29;10.88;;;5.28;;
34317;SDS011;20582;52.196;20.952;2023-08-31T14:42:55;13.68;;;5.82;;